createdAt,value
2018-04-30T00:00:34.048Z,0.60
2018-04-30T00:03:01.941Z,0.50
2018-04-30T00:05:29.463Z,0.93
2018-04-30T00:07:56.987Z,0.77
2018-04-30T00:10:24.475Z,0.83
2018-04-30T00:12:51.972Z,0.50
2018-04-30T00:15:19.484Z,0.67
2018-04-30T00:17:46.992Z,0.50
2018-04-30T00:20:14.478Z,0.77
2018-04-30T00:22:41.991Z,0.87
2018-04-30T00:25:09.882Z,0.87
2018-04-30T00:27:37.393Z,0.80
2018-04-30T00:30:04.877Z,0.60
2018-04-30T00:32:32.360Z,0.80
2018-04-30T00:34:59.879Z,1.23
2018-04-30T00:37:28.239Z,0.70
2018-04-30T00:39:55.778Z,0.83
2018-04-30T00:42:23.267Z,0.60
2018-04-30T00:44:51.185Z,0.93
2018-04-30T00:47:18.670Z,0.87
2018-04-30T00:49:46.174Z,0.53
2018-04-30T00:52:13.669Z,0.70
2018-04-30T00:54:52.852Z,0.63
2018-04-30T00:57:20.724Z,1.03
2018-04-30T00:59:48.241Z,0.80
2018-04-30T01:02:15.728Z,0.70
2018-04-30T01:04:43.603Z,1.07
2018-04-30T01:07:11.106Z,0.60
2018-04-30T01:09:38.622Z,0.50
2018-04-30T01:12:06.541Z,0.90
2018-04-30T01:14:34.054Z,0.53
2018-04-30T01:17:01.565Z,1.03
2018-04-30T01:19:29.074Z,0.67
2018-04-30T01:21:56.553Z,0.60
2018-04-30T01:24:24.184Z,0.70
2018-04-30T01:26:51.661Z,0.87
2018-04-30T01:29:19.143Z,0.60
2018-04-30T01:31:46.644Z,0.83
2018-04-30T01:34:14.743Z,0.60
2018-04-30T01:36:42.237Z,0.50
2018-04-30T01:39:09.730Z,0.70
2018-04-30T01:41:37.251Z,0.70
2018-04-30T01:44:04.736Z,0.97
2018-04-30T01:46:32.614Z,0.80
2018-04-30T01:49:00.121Z,0.70
2018-04-30T01:51:27.618Z,0.60
2018-04-30T01:53:55.514Z,1.00
2018-04-30T01:56:23.004Z,0.67
2018-04-30T01:58:50.516Z,0.50
2018-04-30T02:01:18.024Z,0.57
2018-04-30T02:03:45.528Z,0.40
2018-04-30T02:06:13.022Z,0.47
2018-04-30T02:08:40.539Z,0.70
2018-04-30T02:11:08.023Z,0.67
2018-04-30T02:13:35.527Z,0.53
2018-04-30T02:16:03.432Z,0.53
2018-04-30T02:18:30.929Z,0.80
2018-04-30T02:20:58.418Z,0.57
2018-04-30T02:23:25.918Z,0.70
2018-04-30T02:25:53.410Z,0.90
2018-04-30T02:28:20.919Z,0.60
2018-04-30T02:30:48.414Z,0.43
2018-04-30T02:33:15.907Z,0.40
2018-04-30T02:35:43.778Z,0.60
2018-04-30T02:38:11.674Z,0.97
2018-04-30T02:40:39.160Z,0.83
2018-04-30T02:43:06.679Z,0.63
2018-04-30T02:45:34.181Z,0.50
2018-04-30T02:48:01.659Z,0.80
2018-04-30T02:50:29.570Z,0.50
2018-04-30T02:52:57.087Z,0.60
2018-04-30T02:55:25.003Z,0.80
2018-04-30T02:57:52.512Z,0.90
2018-04-30T03:00:20.433Z,0.73
2018-04-30T03:02:47.944Z,0.47
2018-04-30T03:05:15.851Z,1.00
2018-04-30T03:07:43.356Z,0.43
2018-04-30T03:10:11.256Z,0.37
2018-04-30T03:12:38.762Z,0.50
2018-04-30T03:15:08.148Z,0.70
2018-04-30T03:17:35.644Z,0.60
2018-04-30T03:20:05.014Z,0.60
2018-04-30T03:22:32.498Z,0.60
2018-04-30T03:25:00.398Z,0.70
2018-04-30T03:27:27.894Z,0.60
2018-04-30T03:29:55.389Z,0.70
2018-04-30T03:32:23.296Z,0.40
2018-04-30T03:34:50.793Z,0.80
2018-04-30T03:37:18.304Z,0.60
2018-04-30T03:39:45.790Z,0.53
2018-04-30T03:42:13.319Z,0.40
2018-04-30T03:44:40.813Z,0.67
2018-04-30T03:47:08.294Z,0.57
2018-04-30T03:49:36.211Z,0.60
2018-04-30T03:52:03.717Z,0.77
2018-04-30T03:54:31.620Z,0.63
2018-04-30T03:56:59.132Z,0.83
2018-04-30T03:59:26.613Z,0.50
2018-04-30T04:02:06.305Z,0.30
2018-04-30T04:04:45.572Z,0.40
2018-04-30T04:07:13.488Z,0.50
2018-04-30T04:09:41.001Z,0.57
2018-04-30T04:12:08.919Z,0.57
2018-04-30T04:14:36.412Z,0.40
2018-04-30T04:17:03.897Z,1.47
2018-04-30T04:19:31.782Z,0.53
2018-04-30T04:21:59.276Z,0.73
2018-04-30T04:24:26.778Z,0.77
2018-04-30T04:26:54.293Z,0.40
2018-04-30T04:29:21.790Z,0.63
2018-04-30T04:31:49.720Z,1.33
2018-04-30T04:34:17.209Z,0.40
2018-04-30T04:36:45.105Z,0.50
2018-04-30T04:39:12.597Z,0.30
2018-04-30T04:41:40.127Z,1.47
2018-04-30T04:44:07.642Z,0.40
2018-04-30T04:46:35.542Z,0.50
2018-04-30T04:49:03.038Z,0.40
2018-04-30T04:51:30.533Z,0.87
2018-04-30T04:53:58.029Z,0.73
2018-04-30T04:56:25.517Z,0.63
2018-04-30T04:58:53.018Z,1.07
2018-04-30T05:01:20.527Z,0.70
2018-04-30T05:03:48.036Z,0.83
2018-04-30T05:06:15.530Z,1.00
2018-04-30T05:08:43.034Z,0.80
2018-04-30T05:11:10.916Z,0.47
2018-04-30T05:13:38.418Z,0.70
2018-04-30T05:16:05.976Z,0.50
2018-04-30T05:18:34.456Z,0.73
2018-04-30T05:21:08.576Z,0.30
2018-04-30T05:23:36.079Z,0.80
2018-04-30T05:26:07.189Z,0.50
2018-04-30T05:28:34.716Z,0.43
2018-04-30T05:31:02.198Z,0.87
2018-04-30T05:33:29.712Z,0.80
2018-04-30T05:35:57.202Z,1.13
2018-04-30T05:38:24.742Z,0.53
2018-04-30T05:40:53.249Z,0.80
2018-04-30T05:43:20.729Z,1.43
2018-04-30T05:45:48.643Z,1.67
2018-04-30T05:48:16.146Z,1.77
2018-04-30T05:50:44.058Z,0.60
2018-04-30T05:53:11.592Z,1.60
2018-04-30T05:55:39.088Z,1.67
2018-04-30T05:58:06.586Z,2.13
2018-04-30T06:00:34.231Z,1.23
2018-04-30T06:03:01.685Z,0.90
2018-04-30T06:05:29.183Z,2.23
2018-04-30T06:07:56.713Z,0.70
2018-04-30T06:10:24.241Z,1.07
2018-04-30T06:12:51.751Z,2.57
2018-04-30T06:15:19.301Z,1.60
2018-04-30T06:17:47.242Z,1.13
2018-04-30T06:20:14.744Z,2.10
2018-04-30T06:22:43.224Z,1.63
2018-04-30T06:25:10.732Z,2.43
2018-04-30T06:27:39.743Z,1.30
2018-04-30T06:30:07.713Z,2.00
2018-04-30T06:32:35.605Z,1.07
2018-04-30T06:35:03.252Z,1.63
2018-04-30T06:37:31.328Z,1.00
2018-04-30T06:39:59.011Z,1.17
2018-04-30T06:42:26.638Z,1.17
2018-04-30T06:44:54.342Z,2.67
2018-04-30T06:47:21.929Z,0.93
2018-04-30T06:49:49.503Z,0.93
2018-04-30T06:52:17.106Z,0.90
2018-04-30T06:54:44.790Z,1.00
2018-04-30T06:57:12.336Z,0.77
2018-04-30T06:59:40.287Z,0.90
2018-04-30T07:02:07.768Z,0.53
2018-04-30T07:04:35.280Z,0.30
2018-04-30T07:07:03.203Z,0.63
2018-04-30T07:09:30.814Z,0.40
2018-04-30T07:11:58.241Z,0.20
2018-04-30T07:14:25.758Z,0.33
2018-04-30T07:16:53.267Z,0.20
2018-04-30T07:19:20.782Z,0.20
2018-04-30T07:21:48.351Z,1.33
2018-04-30T07:24:15.831Z,0.77
2018-04-30T07:26:43.339Z,0.30
2018-04-30T07:29:10.854Z,0.30
2018-04-30T07:31:38.368Z,0.30
2018-04-30T07:34:05.885Z,0.40
2018-04-30T07:36:33.793Z,0.53
2018-04-30T07:39:01.298Z,0.20
2018-04-30T07:41:29.199Z,0.20
2018-04-30T07:43:56.717Z,0.30
2018-04-30T07:46:24.215Z,0.37
2018-04-30T07:48:51.716Z,0.30
2018-04-30T07:51:19.211Z,0.20
2018-04-30T07:53:47.123Z,0.30
2018-04-30T07:56:14.651Z,0.37
2018-04-30T07:58:42.152Z,0.30
2018-04-30T08:01:09.684Z,0.20
2018-04-30T08:03:37.175Z,0.30
2018-04-30T08:06:04.686Z,0.40
2018-04-30T08:08:32.176Z,0.20
2018-04-30T08:10:59.700Z,0.20
2018-04-30T08:13:27.189Z,0.20
2018-04-30T08:15:54.687Z,0.20
2018-04-30T08:18:22.185Z,0.20
2018-04-30T08:20:49.702Z,0.30
2018-04-30T08:23:17.610Z,0.23
2018-04-30T08:25:45.099Z,0.20
2018-04-30T08:28:12.576Z,0.30
2018-04-30T08:30:40.065Z,0.37
2018-04-30T08:33:07.579Z,0.40
2018-04-30T08:35:35.085Z,0.30
2018-04-30T08:38:02.600Z,0.37
2018-04-30T08:40:30.124Z,0.30
2018-04-30T08:42:57.630Z,0.50
2018-04-30T08:45:25.521Z,0.20
2018-04-30T08:47:53.037Z,0.40
2018-04-30T08:50:20.586Z,0.20
2018-04-30T08:52:48.099Z,0.30
2018-04-30T08:55:15.588Z,0.20
2018-04-30T08:57:43.103Z,0.30
2018-04-30T09:00:10.649Z,0.20
2018-04-30T09:02:38.165Z,0.40
2018-04-30T09:05:05.679Z,0.30
2018-04-30T09:07:33.178Z,0.30
2018-04-30T09:10:00.709Z,0.20
2018-04-30T09:12:28.207Z,0.30
2018-04-30T09:14:55.746Z,0.30
2018-04-30T09:17:23.244Z,0.30
2018-04-30T09:19:51.188Z,0.30
2018-04-30T09:22:18.697Z,0.30
2018-04-30T09:24:46.209Z,0.40
2018-04-30T09:27:13.720Z,0.43
2018-04-30T09:29:41.244Z,0.20
2018-04-30T09:32:09.144Z,0.20
2018-04-30T09:34:36.649Z,0.20
2018-04-30T09:37:04.171Z,0.30
2018-04-30T09:39:31.686Z,0.20
2018-04-30T09:41:59.595Z,0.20
2018-04-30T09:44:27.137Z,0.30
2018-04-30T09:46:54.636Z,0.20
2018-04-30T09:49:22.118Z,0.30
2018-04-30T09:51:50.013Z,0.30
2018-04-30T09:54:17.512Z,0.30
2018-04-30T09:56:45.012Z,0.20
2018-04-30T09:59:12.888Z,0.20
2018-04-30T10:01:40.394Z,0.20
2018-04-30T10:04:07.889Z,0.20
2018-04-30T10:06:35.785Z,0.40
2018-04-30T10:09:03.282Z,0.30
2018-04-30T10:11:30.781Z,0.20
2018-04-30T10:13:58.343Z,0.20
2018-04-30T10:16:25.868Z,0.40
2018-04-30T10:18:53.800Z,0.20
2018-04-30T10:21:22.164Z,0.43
2018-04-30T10:23:49.754Z,0.30
2018-04-30T10:26:17.182Z,0.20
2018-04-30T10:28:44.682Z,0.20
2018-04-30T10:31:12.344Z,0.50
2018-04-30T10:33:40.284Z,0.30
2018-04-30T10:36:07.770Z,0.20
2018-04-30T10:38:35.290Z,0.30
2018-04-30T10:41:03.398Z,0.27
2018-04-30T10:43:30.902Z,0.30
2018-04-30T10:45:58.422Z,0.30
2018-04-30T10:48:26.341Z,0.30
2018-04-30T10:50:53.837Z,0.20
2018-04-30T10:53:21.357Z,0.30
2018-04-30T10:55:48.849Z,0.40
2018-04-30T10:58:16.359Z,0.30
2018-04-30T11:00:43.867Z,0.40
2018-04-30T11:03:11.341Z,0.30
2018-04-30T11:05:39.455Z,0.37
2018-04-30T11:08:07.730Z,0.30
2018-04-30T11:10:35.246Z,0.50
2018-04-30T11:13:03.154Z,0.43
2018-04-30T11:15:30.674Z,0.30
2018-04-30T11:17:58.584Z,0.20
2018-04-30T11:20:26.109Z,0.40
2018-04-30T11:22:53.632Z,0.20
2018-04-30T11:25:21.125Z,0.20
2018-04-30T11:27:48.625Z,0.30
2018-04-30T11:30:16.135Z,0.30
2018-04-30T11:32:43.639Z,0.30
2018-04-30T11:35:11.160Z,0.30
2018-04-30T11:37:38.662Z,0.30
2018-04-30T11:40:06.252Z,0.20
2018-04-30T11:42:33.683Z,0.20
2018-04-30T11:45:01.192Z,0.20
2018-04-30T11:47:28.732Z,0.30
2018-04-30T11:49:56.632Z,0.30
2018-04-30T11:52:24.189Z,0.30
2018-04-30T11:54:51.745Z,0.20
2018-04-30T11:57:19.241Z,0.23
2018-04-30T11:59:46.749Z,0.20
2018-04-30T12:02:14.278Z,0.40
2018-04-30T12:04:42.186Z,0.30
2018-04-30T12:07:09.691Z,0.30
2018-04-30T12:09:37.611Z,0.30
2018-04-30T12:12:05.151Z,0.50
2018-04-30T12:14:32.671Z,0.23
2018-04-30T12:17:00.196Z,0.20
2018-04-30T12:19:27.710Z,0.23
2018-04-30T12:21:55.277Z,0.30
2018-04-30T12:24:22.765Z,0.33
2018-04-30T12:26:50.260Z,0.20
2018-04-30T12:29:17.753Z,0.30
2018-04-30T12:31:45.262Z,0.20
2018-04-30T12:34:12.777Z,0.20
2018-04-30T12:36:40.274Z,0.40
2018-04-30T12:39:07.793Z,0.20
2018-04-30T12:41:35.296Z,0.20
2018-04-30T12:44:02.832Z,0.30
2018-04-30T12:46:30.328Z,0.47
2018-04-30T12:48:58.215Z,0.20
2018-04-30T12:51:25.736Z,0.40
2018-04-30T12:53:53.237Z,0.20
2018-04-30T12:56:20.729Z,0.37
2018-04-30T12:58:48.235Z,0.20
2018-04-30T13:01:15.765Z,0.20
2018-04-30T13:06:17.335Z,0.27
2018-04-30T13:08:44.839Z,0.30
2018-04-30T13:11:12.374Z,0.20
2018-04-30T13:13:40.262Z,0.20
2018-04-30T13:16:07.772Z,0.30
2018-04-30T13:18:35.286Z,0.30
2018-04-30T13:21:02.879Z,0.20
2018-04-30T13:23:30.398Z,0.20
2018-04-30T13:25:57.896Z,0.30
2018-04-30T13:28:25.420Z,0.20
2018-04-30T13:30:52.930Z,0.23
2018-04-30T13:33:20.617Z,0.27
2018-04-30T13:35:48.645Z,0.23
2018-04-30T13:38:16.352Z,0.30
2018-04-30T13:40:43.861Z,0.30
2018-04-30T13:43:11.345Z,0.30
2018-04-30T13:45:39.615Z,0.23
2018-04-30T13:48:08.466Z,0.30
2018-04-30T13:50:35.979Z,0.20
2018-04-30T13:53:03.884Z,0.30
2018-04-30T13:55:31.374Z,0.23
2018-04-30T13:57:58.891Z,0.20
2018-04-30T14:00:26.370Z,0.20
2018-04-30T14:02:53.870Z,0.40
2018-04-30T14:05:21.753Z,0.30
2018-04-30T14:07:49.640Z,0.20
2018-04-30T14:10:17.144Z,0.30
2018-04-30T14:12:44.679Z,0.37
2018-04-30T14:15:12.181Z,0.20
2018-04-30T14:17:40.062Z,0.30
2018-04-30T14:20:07.567Z,0.30
2018-04-30T14:22:35.337Z,0.30
2018-04-30T14:25:02.944Z,0.40
2018-04-30T14:27:30.602Z,0.20
2018-04-30T14:29:58.111Z,0.20
2018-04-30T14:32:25.630Z,0.30
2018-04-30T14:34:53.127Z,0.23
2018-04-30T14:37:20.626Z,0.23
2018-04-30T14:39:48.620Z,0.20
2018-04-30T14:42:16.119Z,0.23
2018-04-30T14:44:43.673Z,0.63
2018-04-30T14:47:11.295Z,0.30
2018-04-30T14:49:38.926Z,0.30
2018-04-30T14:52:06.846Z,0.33
2018-04-30T14:54:34.323Z,0.30
2018-04-30T14:57:02.044Z,0.20
2018-04-30T14:59:29.780Z,0.20
2018-04-30T15:01:57.670Z,0.33
2018-04-30T15:04:25.171Z,0.10
2018-04-30T15:06:52.716Z,0.20
2018-04-30T15:09:20.257Z,0.20
2018-04-30T15:11:47.803Z,0.20
2018-04-30T15:14:15.339Z,0.20
2018-04-30T15:16:43.236Z,0.20
2018-04-30T15:19:10.749Z,0.10
2018-04-30T15:21:38.697Z,0.23
2018-04-30T15:24:06.216Z,0.20
2018-04-30T15:26:33.701Z,0.27
2018-04-30T15:29:01.198Z,0.30
2018-04-30T15:31:29.100Z,0.30
2018-04-30T15:33:56.629Z,0.20
2018-04-30T15:36:24.134Z,0.20
2018-04-30T15:38:51.636Z,0.67
2018-04-30T15:41:19.146Z,0.30
2018-04-30T15:43:46.653Z,0.30
2018-04-30T15:46:14.549Z,0.30
2018-04-30T15:48:42.080Z,0.30
2018-04-30T15:51:09.593Z,0.20
2018-04-30T15:53:37.113Z,0.20
2018-04-30T15:56:04.639Z,0.30
2018-04-30T15:58:32.531Z,0.30
2018-04-30T16:01:00.028Z,0.20
2018-04-30T16:03:27.527Z,0.30
2018-04-30T16:05:55.417Z,0.30
2018-04-30T16:08:22.922Z,0.30
2018-04-30T16:10:50.403Z,0.30
2018-04-30T16:13:18.289Z,0.20
2018-04-30T16:15:45.801Z,0.30
2018-04-30T16:18:13.293Z,0.40
2018-04-30T16:20:41.204Z,0.23
2018-04-30T16:23:08.710Z,0.20
2018-04-30T16:25:36.642Z,0.40
2018-04-30T16:28:04.166Z,0.20
2018-04-30T16:30:31.689Z,0.30
2018-04-30T16:32:59.194Z,0.50
2018-04-30T16:35:26.685Z,0.20
2018-04-30T16:37:54.308Z,0.30
2018-04-30T16:40:21.868Z,0.40
2018-04-30T16:42:49.402Z,0.20
2018-04-30T16:45:17.008Z,0.30
2018-04-30T16:47:44.938Z,0.30
2018-04-30T16:50:12.467Z,0.30
2018-04-30T16:52:39.977Z,0.20
2018-04-30T16:55:07.486Z,0.30
2018-04-30T16:57:36.142Z,0.33
2018-04-30T17:00:03.672Z,0.37
2018-04-30T17:02:31.197Z,0.40
2018-04-30T17:04:59.082Z,0.30
2018-04-30T17:07:26.626Z,0.30
2018-04-30T17:09:54.553Z,0.30
2018-04-30T17:12:22.061Z,0.30
2018-04-30T17:14:49.619Z,0.20
2018-04-30T17:17:17.105Z,0.30
2018-04-30T17:19:44.611Z,0.50
2018-04-30T17:22:12.597Z,0.53
2018-04-30T17:24:40.097Z,0.40
2018-04-30T17:27:07.609Z,0.30
2018-04-30T17:29:35.173Z,0.30
2018-04-30T17:32:03.257Z,0.40
2018-04-30T17:34:30.873Z,0.30
2018-04-30T17:37:00.183Z,0.30
2018-04-30T17:39:27.778Z,0.40
2018-04-30T17:41:55.340Z,0.40
2018-04-30T17:44:22.847Z,0.30
2018-04-30T17:46:50.453Z,0.30
2018-04-30T17:49:17.920Z,0.30
2018-04-30T17:51:45.417Z,0.30
2018-04-30T17:54:12.931Z,0.40
2018-04-30T17:56:40.665Z,0.30
2018-04-30T17:59:08.178Z,0.60
2018-04-30T18:01:35.681Z,0.30
2018-04-30T18:04:03.773Z,0.53
2018-04-30T18:06:31.280Z,0.30
2018-04-30T18:08:59.389Z,0.40
2018-04-30T18:11:26.884Z,0.40
2018-04-30T18:13:54.368Z,0.43
2018-04-30T18:16:21.913Z,0.30
2018-04-30T18:18:49.408Z,0.40
2018-04-30T18:21:17.313Z,0.60
2018-04-30T18:23:44.829Z,0.43
2018-04-30T18:26:12.722Z,0.37
2018-04-30T18:28:42.508Z,0.30
2018-04-30T18:31:10.397Z,0.50
2018-04-30T18:33:37.909Z,0.40
2018-04-30T18:36:05.396Z,0.40
2018-04-30T18:38:33.337Z,0.70
2018-04-30T18:41:00.851Z,0.30
2018-04-30T18:43:28.374Z,0.40
2018-04-30T18:45:56.273Z,0.87
2018-04-30T18:48:23.776Z,0.60
2018-04-30T18:50:51.280Z,0.40
2018-04-30T18:53:18.878Z,0.40
2018-04-30T18:55:46.362Z,0.50
2018-04-30T18:58:14.251Z,0.50
2018-04-30T19:00:41.756Z,0.47
2018-04-30T19:03:09.286Z,0.40
2018-04-30T19:05:36.778Z,0.40
2018-04-30T19:08:04.307Z,0.40
2018-04-30T19:10:31.990Z,0.47
2018-04-30T19:12:59.465Z,0.40
2018-04-30T19:15:26.946Z,0.50
2018-04-30T19:17:54.461Z,0.40
2018-04-30T19:20:22.011Z,0.50
2018-04-30T19:22:49.506Z,0.60
2018-04-30T19:25:18.066Z,0.40
2018-04-30T19:27:45.582Z,0.70
2018-04-30T19:30:13.078Z,0.50
2018-04-30T19:32:40.594Z,0.30
2018-04-30T19:35:08.102Z,0.50
2018-04-30T19:37:35.688Z,0.33
2018-04-30T19:40:03.632Z,0.30
2018-04-30T19:42:31.597Z,0.50
2018-04-30T19:44:59.119Z,0.43
2018-04-30T19:47:26.629Z,0.60
2018-04-30T19:49:54.547Z,0.70
2018-04-30T19:52:22.111Z,0.40
2018-04-30T19:54:49.950Z,0.30
2018-04-30T19:57:17.472Z,0.50
2018-04-30T19:59:44.941Z,0.20
2018-04-30T20:02:12.850Z,0.50
2018-04-30T20:04:41.369Z,0.50
2018-04-30T20:07:08.875Z,0.40
2018-04-30T20:09:36.417Z,0.50
2018-04-30T20:12:03.942Z,0.50
2018-04-30T20:14:31.448Z,0.50
2018-04-30T20:16:58.952Z,0.50
2018-04-30T20:19:26.443Z,0.57
2018-04-30T20:21:53.976Z,0.50
2018-04-30T20:24:21.767Z,0.50
2018-04-30T20:26:49.250Z,0.70
2018-04-30T20:29:16.757Z,0.60
2018-04-30T20:31:44.273Z,0.40
2018-04-30T20:34:11.804Z,0.57
2018-04-30T20:36:39.303Z,0.30
2018-04-30T20:39:06.825Z,0.40
2018-04-30T20:41:34.327Z,0.40
2018-04-30T20:44:01.825Z,0.30
2018-04-30T20:46:29.737Z,0.40
2018-04-30T20:48:57.226Z,0.40
2018-04-30T20:51:24.723Z,0.30
2018-04-30T20:53:52.222Z,0.40
2018-04-30T20:56:19.737Z,0.30
2018-04-30T20:58:47.253Z,0.30
2018-04-30T21:01:14.788Z,0.40
2018-04-30T21:03:42.287Z,0.53
2018-04-30T21:06:10.196Z,0.30
2018-04-30T21:08:49.619Z,0.47
2018-04-30T21:11:17.137Z,0.30
2018-04-30T21:13:44.642Z,0.50
2018-04-30T21:16:12.140Z,0.40
2018-04-30T21:18:39.666Z,0.37
2018-04-30T21:21:07.155Z,0.70
2018-04-30T21:23:34.799Z,0.40
2018-04-30T21:26:02.315Z,0.30
2018-04-30T21:28:29.840Z,0.50
2018-04-30T21:30:58.092Z,0.40
2018-04-30T21:33:25.728Z,0.50
2018-04-30T21:35:53.199Z,0.50
2018-04-30T21:38:20.698Z,0.60
2018-04-30T21:40:48.591Z,0.40
2018-04-30T21:43:16.116Z,0.63
2018-04-30T21:45:44.028Z,0.50
2018-04-30T21:48:11.529Z,0.43
2018-04-30T21:50:39.557Z,0.60
2018-04-30T21:53:07.915Z,0.40
2018-04-30T21:55:35.445Z,0.37
2018-04-30T21:58:04.017Z,0.50
2018-04-30T22:00:31.626Z,0.40
2018-04-30T22:02:59.069Z,0.43
2018-04-30T22:05:26.585Z,0.50
2018-04-30T22:07:54.064Z,0.50
2018-04-30T22:10:21.949Z,0.50
2018-04-30T22:12:50.314Z,1.83
2018-04-30T22:15:18.299Z,0.33
2018-04-30T22:17:45.922Z,0.67
2018-04-30T22:20:13.415Z,0.30
2018-04-30T22:22:40.959Z,0.20
2018-04-30T22:25:08.839Z,0.60
2018-04-30T22:27:36.350Z,0.50
2018-04-30T22:30:03.848Z,0.20
2018-04-30T22:32:31.856Z,0.40
2018-04-30T22:34:59.642Z,0.30
2018-04-30T22:37:27.134Z,0.30
2018-04-30T22:39:55.022Z,0.47
2018-04-30T22:42:22.540Z,0.20
2018-04-30T22:44:50.429Z,0.47
2018-04-30T22:47:17.972Z,0.40
2018-04-30T22:49:45.561Z,0.30
2018-04-30T22:52:13.092Z,0.63
2018-04-30T22:54:40.991Z,0.40
2018-04-30T22:57:09.335Z,0.30
2018-04-30T22:59:37.234Z,0.53
2018-04-30T23:02:04.869Z,0.40
2018-04-30T23:04:32.764Z,0.30
2018-04-30T23:07:01.165Z,0.40
2018-04-30T23:09:28.652Z,0.40
2018-04-30T23:11:57.140Z,0.30
2018-04-30T23:14:25.048Z,0.60
2018-04-30T23:16:52.540Z,0.50
2018-04-30T23:19:20.041Z,0.40
2018-04-30T23:21:47.548Z,0.50
2018-04-30T23:24:15.764Z,0.40
2018-04-30T23:26:43.643Z,0.40
2018-04-30T23:29:11.221Z,0.40
2018-04-30T23:31:38.773Z,0.50
2018-04-30T23:34:06.357Z,0.30
2018-04-30T23:36:33.907Z,0.50
2018-04-30T23:39:01.449Z,0.40
2018-04-30T23:41:28.961Z,0.30
2018-04-30T23:43:56.469Z,0.50
2018-04-30T23:46:23.988Z,0.30
2018-04-30T23:48:51.878Z,0.40
2018-04-30T23:51:19.376Z,0.63
2018-04-30T23:53:46.873Z,0.50
2018-04-30T23:56:14.751Z,0.43
2018-04-30T23:58:42.651Z,0.57
